Time;durP1;ratioP1;P1;durP2;ratioP2;P2;SDS_P1;SDS_P2;PMS_P1;PMS_P2;Temp;Humidity;BMP_temperature;BMP_pressure;BME280_temperature;BME280_humidity;BME280_pressure;Samples;Min_cycle;Max_cycle;Signal;HPM_P1;HPM_P2
2023/03/03 00:01:10;;;;;;;63.70;25.80;;;1.30;99.90;;;;;;5061503;28;20075;-72
2023/03/03 00:03:36;;;;;;;52.07;23.73;;;1.40;99.90;;;;;;5062686;28;20051;-70
2023/03/03 00:06:04;;;;;;;80.90;27.97;;;1.30;99.90;;;;;;5061359;28;20082;-71
2023/03/03 00:08:31;;;;;;;70.10;26.57;;;1.30;99.90;;;;;;5060159;28;20044;-71
2023/03/03 00:10:59;;;;;;;62.57;27.17;;;1.30;99.90;;;;;;5087693;28;20093;-71
2023/03/03 00:13:26;;;;;;;63.17;26.43;;;1.40;99.90;;;;;;5057508;28;20048;-72
2023/03/03 00:15:53;;;;;;;124.07;35.23;;;1.40;99.90;;;;;;5060015;28;20070;-71
2023/03/03 00:18:33;;;;;;;79.27;26.17;;;1.40;99.90;;;;;;5078446;28;20165;-71
2023/03/03 00:21:01;;;;;;;61.87;26.73;;;1.40;99.90;;;;;;5078069;28;20048;-71
2023/03/03 00:23:30;;;;;;;80.60;26.97;;;1.50;99.90;;;;;;5096906;28;20036;-72
2023/03/03 00:25:57;;;;;;;69.80;27.00;;;1.50;99.90;;;;;;5097934;28;20077;-72
2023/03/03 00:28:45;;;;;;;83.77;26.10;;;1.50;99.90;;;;;;5061686;28;20478;-71
2023/03/03 00:31:35;;;;;;;94.97;26.60;;;1.60;99.90;;;;;;5097306;28;20056;-71
2023/03/03 00:34:24;;;;;;;95.00;26.93;;;1.60;99.90;;;;;;5057182;28;20481;-71
2023/03/03 00:36:54;;;;;;;67.10;25.67;;;1.60;99.90;;;;;;5057619;28;20056;-71
2023/03/03 00:39:35;;;;;;;132.20;33.47;;;1.60;99.90;;;;;;5094115;28;20078;-71
2023/03/03 00:42:09;;;;;;;86.03;27.23;;;1.60;99.90;;;;;;5096632;28;20047;-71
2023/03/03 00:44:59;;;;;;;102.77;28.57;;;1.70;99.90;;;;;;5070813;28;20044;-72
2023/03/03 00:47:45;;;;;;;68.27;26.23;;;1.70;99.90;;;;;;5068772;28;20436;-71
2023/03/03 00:50:10;;;;;;;82.80;27.93;;;1.70;99.90;;;;;;5078913;28;20068;-71
2023/03/03 00:52:39;;;;;;;85.17;28.67;;;1.70;99.90;;;;;;5075589;28;20436;-72
2023/03/03 00:55:06;;;;;;;142.73;33.53;;;1.80;99.90;;;;;;5077295;28;20040;-71
2023/03/03 00:57:32;;;;;;;63.33;25.33;;;1.80;99.90;;;;;;5078794;28;20079;-71
2023/03/03 00:59:58;;;;;;;147.07;33.17;;;1.80;99.90;;;;;;5078857;28;20127;-72
2023/03/03 01:02:23;;;;;;;68.10;26.10;;;1.80;99.90;;;;;;5075364;28;20044;-71
2023/03/03 01:04:52;;;;;;;79.97;29.47;;;1.80;99.90;;;;;;5051827;28;20059;-71
2023/03/03 01:07:18;;;;;;;70.63;27.60;;;1.90;99.90;;;;;;5075919;28;20056;-71
2023/03/03 01:09:44;;;;;;;92.47;28.90;;;1.90;99.90;;;;;;5095211;28;20484;-72
2023/03/03 01:12:11;;;;;;;137.27;32.10;;;1.90;99.90;;;;;;5062263;28;20578;-71
2023/03/03 01:14:37;;;;;;;64.77;26.00;;;1.90;99.90;;;;;;5052990;28;20533;-71
2023/03/03 01:17:03;;;;;;;183.97;37.93;;;2.00;99.90;;;;;;5073643;28;20036;-71
2023/03/03 01:19:29;;;;;;;129.97;33.53;;;2.00;99.90;;;;;;5057116;28;20186;-71
2023/03/03 01:21:55;;;;;;;88.93;28.33;;;2.00;99.90;;;;;;5061826;28;20144;-71
2023/03/03 01:24:20;;;;;;;95.03;30.43;;;2.00;99.90;;;;;;5050158;28;20047;-71
2023/03/03 01:26:46;;;;;;;92.73;27.97;;;2.00;99.90;;;;;;5058386;28;20052;-71
2023/03/03 01:29:12;;;;;;;88.40;29.27;;;2.00;99.90;;;;;;5078064;28;20079;-71
2023/03/03 01:31:39;;;;;;;94.77;29.97;;;2.00;99.90;;;;;;5088251;28;20048;-71
2023/03/03 01:34:06;;;;;;;61.53;27.43;;;2.10;99.90;;;;;;5096371;28;20055;-72
2023/03/03 01:36:32;;;;;;;64.63;26.77;;;2.10;99.90;;;;;;5074982;28;20028;-71
2023/03/03 01:38:59;;;;;;;182.13;38.13;;;2.10;99.90;;;;;;5076334;28;20055;-71
2023/03/03 01:41:32;;;;;;;105.10;30.93;;;2.10;99.90;;;;;;5060879;28;20113;-72
2023/03/03 01:43:58;;;;;;;84.90;29.33;;;2.10;99.90;;;;;;5061601;28;20450;-72
2023/03/03 01:46:33;;;;;;;94.33;30.80;;;2.10;99.90;;;;;;5072288;28;20079;-71
2023/03/03 01:49:06;;;;;;;117.97;34.63;;;2.10;99.90;;;;;;5071806;28;20044;-71
2023/03/03 01:51:57;;;;;;;215.00;43.63;;;2.10;99.90;;;;;;5042785;28;20048;-71
2023/03/03 01:54:55;;;;;;;95.80;30.30;;;2.10;99.90;;;;;;5064208;28;20099;-72
2023/03/03 01:57:26;;;;;;;116.67;33.63;;;2.10;99.90;;;;;;5052191;28;20048;-71
2023/03/03 01:59:54;;;;;;;119.82;29.85;;;2.10;99.90;;;;;;5078848;28;20517;-71
2023/03/03 02:02:20;;;;;;;111.00;29.87;;;2.10;99.90;;;;;;5060858;28;20047;-71
2023/03/03 02:04:46;;;;;;;138.13;33.07;;;2.10;99.90;;;;;;5077707;28;20050;-71
2023/03/03 02:07:15;;;;;;;116.03;31.27;;;2.10;99.90;;;;;;5074229;28;20511;-71
2023/03/03 02:10:05;;;;;;;77.50;26.83;;;2.10;99.90;;;;;;5072653;28;20051;-71
2023/03/03 02:12:36;;;;;;;137.93;31.07;;;2.20;99.90;;;;;;5076328;28;20056;-71
2023/03/03 02:15:15;;;;;;;79.38;29.00;;;2.20;99.90;;;;;;5095189;28;20043;-71
2023/03/03 02:17:41;;;;;;;68.60;27.37;;;2.20;99.90;;;;;;5076716;28;20055;-71
2023/03/03 02:20:16;;;;;;;98.30;29.10;;;2.20;99.90;;;;;;5077403;28;20036;-72
2023/03/03 02:23:08;;;;;;;117.17;31.27;;;2.20;99.90;;;;;;5095543;28;20032;-71
2023/03/03 02:25:54;;;;;;;77.28;29.25;;;2.20;99.90;;;;;;5094142;28;20547;-71
2023/03/03 02:28:22;;;;;;;70.83;28.77;;;2.20;99.90;;;;;;5094785;28;20047;-71
2023/03/03 02:30:47;;;;;;;73.57;29.07;;;2.30;99.90;;;;;;5073753;28;20044;-71
2023/03/03 02:33:13;;;;;;;140.97;36.10;;;2.30;99.90;;;;;;5060111;28;20055;-71
2023/03/03 02:35:40;;;;;;;84.53;29.80;;;2.30;99.90;;;;;;5059718;28;20043;-71
2023/03/03 02:38:20;;;;;;;84.50;29.30;;;2.30;99.90;;;;;;5061717;28;20050;-71
2023/03/03 02:41:27;;;;;;;75.70;28.37;;;2.30;99.90;;;;;;5075211;28;20040;-71
2023/03/03 02:44:06;;;;;;;131.60;33.37;;;2.20;99.90;;;;;;5076710;28;20051;-70
2023/03/03 02:46:40;;;;;;;78.70;29.13;;;2.30;99.90;;;;;;5096513;28;20075;-72
2023/03/03 02:49:08;;;;;;;69.83;28.30;;;2.30;99.90;;;;;;5071987;28;20072;-71
2023/03/03 02:51:34;;;;;;;125.90;33.77;;;2.30;99.90;;;;;;5074137;28;20065;-71
2023/03/03 02:53:59;;;;;;;142.03;36.27;;;2.30;99.90;;;;;;5077353;28;20044;-72
2023/03/03 02:56:26;;;;;;;85.50;30.20;;;2.30;99.90;;;;;;5073919;28;20045;-71
2023/03/03 02:58:52;;;;;;;117.13;33.20;;;2.30;99.90;;;;;;5059981;28;20109;-71
2023/03/03 03:01:18;;;;;;;129.63;35.73;;;2.30;99.90;;;;;;5076350;28;20725;-70
2023/03/03 03:03:44;;;;;;;161.17;38.90;;;2.30;99.90;;;;;;5060983;28;20060;-71
2023/03/03 03:06:10;;;;;;;123.10;34.00;;;2.30;99.90;;;;;;5063405;28;20044;-71
2023/03/03 03:08:36;;;;;;;274.83;47.80;;;2.30;99.90;;;;;;5061045;28;20055;-71
2023/03/03 03:11:04;;;;;;;200.90;40.80;;;2.30;99.90;;;;;;5074217;28;20097;-71
2023/03/03 03:13:30;;;;;;;127.60;32.47;;;2.30;99.90;;;;;;5094185;28;20057;-72
2023/03/03 03:15:56;;;;;;;128.50;31.67;;;2.30;99.90;;;;;;5080531;28;20428;-71
2023/03/03 03:18:22;;;;;;;223.33;38.00;;;2.20;99.90;;;;;;5080631;28;20098;-71
2023/03/03 03:20:48;;;;;;;132.93;28.83;;;2.20;99.90;;;;;;5080485;28;20050;-71
2023/03/03 03:23:14;;;;;;;210.23;39.97;;;2.20;99.90;;;;;;5046709;28;20051;-70
2023/03/03 03:25:44;;;;;;;263.33;42.80;;;2.20;99.90;;;;;;5080691;28;20594;-71
2023/03/03 03:28:11;;;;;;;277.83;45.30;;;2.10;99.90;;;;;;5044019;28;20064;-71
2023/03/03 03:30:38;;;;;;;199.87;33.87;;;2.10;99.90;;;;;;5061940;28;20059;-70
2023/03/03 03:33:04;;;;;;;201.80;33.90;;;2.10;99.90;;;;;;5059656;28;20052;-70
2023/03/03 03:35:31;;;;;;;194.30;33.20;;;2.10;99.90;;;;;;5078490;28;20066;-71
2023/03/03 03:37:57;;;;;;;173.50;30.67;;;2.10;99.90;;;;;;5097971;28;20568;-72
2023/03/03 03:40:24;;;;;;;152.20;24.60;;;2.10;99.90;;;;;;5096835;28;20066;-71
2023/03/03 03:42:50;;;;;;;211.07;32.93;;;2.00;99.90;;;;;;5078441;28;20372;-72
2023/03/03 03:45:15;;;;;;;148.10;23.77;;;2.00;99.90;;;;;;5078955;28;20050;-71
2023/03/03 03:47:41;;;;;;;141.63;24.70;;;2.00;99.90;;;;;;5059160;28;20044;-71
2023/03/03 03:50:08;;;;;;;189.90;26.30;;;1.90;99.90;;;;;;5078841;28;20052;-71
2023/03/03 03:52:34;;;;;;;189.23;27.10;;;1.90;99.90;;;;;;5052944;28;20111;-71
2023/03/03 03:55:00;;;;;;;256.03;35.30;;;2.00;99.90;;;;;;5079296;28;20087;-72
2023/03/03 03:57:26;;;;;;;251.40;34.10;;;1.90;99.90;;;;;;5078104;28;20495;-71
2023/03/03 03:59:52;;;;;;;219.87;30.93;;;2.00;99.90;;;;;;5062103;28;20036;-71
2023/03/03 04:02:17;;;;;;;154.60;23.23;;;2.00;99.90;;;;;;5078724;28;20036;-72
2023/03/03 04:04:43;;;;;;;294.53;36.17;;;2.00;99.90;;;;;;5076203;28;20127;-71
2023/03/03 04:07:09;;;;;;;207.87;30.23;;;2.00;99.90;;;;;;5054940;28;20167;-71
2023/03/03 04:09:34;;;;;;;172.77;26.73;;;2.00;99.90;;;;;;5043267;28;20045;-72
2023/03/03 04:12:00;;;;;;;127.10;19.73;;;2.00;99.90;;;;;;5078480;28;20044;-71
2023/03/03 04:14:26;;;;;;;137.43;21.87;;;1.90;99.90;;;;;;5063249;28;20321;-71
2023/03/03 04:16:52;;;;;;;147.27;22.43;;;2.00;99.90;;;;;;5077882;28;20422;-70
2023/03/03 04:19:18;;;;;;;164.60;23.77;;;2.00;99.90;;;;;;5078220;28;20056;-71
2023/03/03 04:21:44;;;;;;;156.27;24.30;;;2.00;99.90;;;;;;5076487;28;20082;-71
2023/03/03 04:24:09;;;;;;;190.57;25.47;;;2.00;99.90;;;;;;5061270;28;20477;-71
2023/03/03 04:26:35;;;;;;;257.70;33.17;;;2.00;99.90;;;;;;5061373;28;20136;-71
2023/03/03 04:29:01;;;;;;;147.10;20.97;;;2.00;99.90;;;;;;5096309;28;20050;-71
2023/03/03 04:31:27;;;;;;;91.43;16.10;;;2.00;99.90;;;;;;5046356;28;20122;-71
2023/03/03 04:33:53;;;;;;;201.20;27.97;;;2.10;99.90;;;;;;5052634;28;20044;-70
2023/03/03 04:36:20;;;;;;;203.40;24.63;;;2.10;99.90;;;;;;5055583;28;20062;-71
2023/03/03 04:38:45;;;;;;;95.13;17.80;;;2.10;99.90;;;;;;5072645;28;20163;-71
2023/03/03 04:41:11;;;;;;;115.83;17.67;;;2.00;99.90;;;;;;5070205;28;20076;-71
2023/03/03 04:43:37;;;;;;;190.67;24.33;;;2.10;99.90;;;;;;5047298;28;20064;-71
2023/03/03 04:46:03;;;;;;;160.63;21.67;;;2.10;99.90;;;;;;5046076;28;20029;-71
2023/03/03 04:48:28;;;;;;;252.43;29.33;;;2.00;99.90;;;;;;5069880;28;20040;-71
2023/03/03 04:50:54;;;;;;;211.93;27.93;;;2.00;99.90;;;;;;5065805;28;20161;-70
2023/03/03 04:53:20;;;;;;;110.23;18.07;;;2.00;99.90;;;;;;5070867;28;20051;-71
2023/03/03 04:55:46;;;;;;;119.20;20.20;;;2.00;99.90;;;;;;5057055;28;20044;-72
2023/03/03 04:58:11;;;;;;;85.60;17.17;;;2.00;99.90;;;;;;5057132;28;20041;-71
2023/03/03 05:00:38;;;;;;;149.73;21.57;;;2.00;99.90;;;;;;5035618;28;20037;-71
2023/03/03 05:03:04;;;;;;;129.00;19.83;;;2.00;99.90;;;;;;5047372;28;20679;-71
2023/03/03 05:05:29;;;;;;;152.50;23.70;;;2.10;99.90;;;;;;5030474;28;20079;-71
2023/03/03 05:07:55;;;;;;;65.93;16.03;;;2.10;99.90;;;;;;5052203;28;20070;-71
2023/03/03 05:10:21;;;;;;;94.17;17.83;;;2.10;99.90;;;;;;5047909;28;20099;-71
2023/03/03 05:12:47;;;;;;;70.43;15.17;;;2.10;99.90;;;;;;5071745;28;20403;-71
2023/03/03 05:15:12;;;;;;;83.07;16.13;;;2.10;99.90;;;;;;5071443;28;20044;-71
2023/03/03 05:17:38;;;;;;;64.67;15.23;;;2.20;99.90;;;;;;5064931;28;20143;-71
2023/03/03 05:20:07;;;;;;;60.23;15.83;;;2.20;99.90;;;;;;5048948;28;20079;-71
2023/03/03 05:22:33;;;;;;;104.27;16.30;;;2.30;99.90;;;;;;5070386;28;20107;-71
2023/03/03 05:24:59;;;;;;;65.03;15.60;;;2.30;99.90;;;;;;5050332;28;20079;-70
2023/03/03 05:27:24;;;;;;;72.73;15.30;;;2.30;99.90;;;;;;5073722;28;20466;-71
2023/03/03 05:29:50;;;;;;;148.23;18.80;;;2.20;99.90;;;;;;5043848;28;20063;-72
2023/03/03 05:32:16;;;;;;;112.07;17.03;;;2.20;99.90;;;;;;5095141;28;20058;-71
2023/03/03 05:34:42;;;;;;;98.53;16.37;;;2.20;99.90;;;;;;5074718;28;20092;-70
2023/03/03 05:37:08;;;;;;;90.50;15.17;;;2.20;99.90;;;;;;5084483;28;20122;-71
2023/03/03 05:39:34;;;;;;;90.83;15.47;;;2.20;99.90;;;;;;5071676;28;20176;-71
2023/03/03 05:42:00;;;;;;;208.73;24.47;;;2.20;99.90;;;;;;5060304;28;20051;-71
2023/03/03 05:44:26;;;;;;;130.13;17.13;;;2.20;99.90;;;;;;5073984;28;20478;-71
2023/03/03 05:46:52;;;;;;;64.10;13.47;;;2.20;99.90;;;;;;5096206;28;20056;-71
2023/03/03 05:49:18;;;;;;;128.97;16.33;;;2.20;99.90;;;;;;5071920;28;20040;-71
2023/03/03 05:51:43;;;;;;;127.77;17.03;;;2.20;99.90;;;;;;5074324;28;20047;-71
2023/03/03 05:54:09;;;;;;;110.67;17.70;;;2.20;99.90;;;;;;5042496;28;20505;-71
2023/03/03 05:56:35;;;;;;;242.60;27.33;;;2.20;99.90;;;;;;5059878;28;20535;-71
2023/03/03 05:59:01;;;;;;;78.47;15.33;;;2.20;99.90;;;;;;5076157;28;20039;-71
2023/03/03 06:01:28;;;;;;;231.10;27.13;;;2.20;99.90;;;;;;5051600;28;20071;-71
2023/03/03 06:03:54;;;;;;;113.57;17.53;;;2.30;99.90;;;;;;5057810;28;20113;-70
2023/03/03 06:06:19;;;;;;;42.03;12.73;;;2.30;99.90;;;;;;5073231;28;20075;-71
2023/03/03 06:08:45;;;;;;;85.23;14.23;;;2.30;99.90;;;;;;5043682;28;20067;-71
2023/03/03 06:11:11;;;;;;;124.77;19.07;;;2.30;99.90;;;;;;5057632;28;20072;-71
2023/03/03 06:13:37;;;;;;;106.20;17.60;;;2.30;99.90;;;;;;5088132;28;20051;-70
2023/03/03 06:16:03;;;;;;;69.13;13.93;;;2.30;99.90;;;;;;5093760;28;20040;-71
2023/03/03 06:18:29;;;;;;;124.00;14.97;;;2.30;99.90;;;;;;5042214;28;20051;-71
2023/03/03 06:20:55;;;;;;;97.87;12.67;;;2.30;99.90;;;;;;5055890;28;20094;-71
2023/03/03 06:23:21;;;;;;;142.60;15.70;;;2.30;99.90;;;;;;5093976;28;20086;-71
2023/03/03 06:25:47;;;;;;;118.67;14.17;;;2.20;99.90;;;;;;5060347;28;20046;-71
2023/03/03 06:28:13;;;;;;;111.27;13.03;;;2.20;99.90;;;;;;5074615;28;20040;-70
2023/03/03 06:30:40;;;;;;;101.23;11.47;;;2.20;99.90;;;;;;5065275;28;20056;-71
2023/03/03 06:33:06;;;;;;;134.80;13.20;;;2.20;99.90;;;;;;5094801;28;20040;-72
2023/03/03 06:35:31;;;;;;;79.10;10.03;;;2.20;99.90;;;;;;5072551;28;20051;-71
2023/03/03 06:37:57;;;;;;;98.63;10.47;;;2.20;99.90;;;;;;5056731;28;20041;-71
2023/03/03 06:40:23;;;;;;;145.00;14.27;;;2.20;99.90;;;;;;5078225;28;20513;-71
2023/03/03 06:42:48;;;;;;;170.67;18.53;;;2.20;99.90;;;;;;5098019;28;20040;-71
2023/03/03 06:45:14;;;;;;;128.47;13.53;;;2.20;99.90;;;;;;5066950;28;20051;-71
2023/03/03 06:47:40;;;;;;;147.50;14.27;;;2.20;99.90;;;;;;5073473;28;20120;-71
2023/03/03 06:50:08;;;;;;;85.10;11.53;;;2.20;99.90;;;;;;5071029;28;20040;-70
2023/03/03 06:52:34;;;;;;;73.20;11.20;;;2.20;99.90;;;;;;5058697;28;20042;-70
2023/03/03 06:55:08;;;;;;;84.03;12.17;;;2.20;99.90;;;;;;5077200;28;20056;-85
2023/03/03 06:57:34;;;;;;;116.53;13.80;;;2.30;99.90;;;;;;5044253;28;20084;-76
2023/03/03 07:00:22;;;;;;;124.37;14.83;;;2.30;99.90;;;;;;5045660;28;20519;-70
2023/03/03 07:02:58;;;;;;;153.03;14.87;;;2.30;99.90;;;;;;5042707;28;20051;-71
2023/03/03 07:05:27;;;;;;;183.23;18.97;;;2.30;99.90;;;;;;5079765;28;20446;-71
2023/03/03 07:07:56;;;;;;;110.43;13.53;;;2.20;99.90;;;;;;5074383;28;20474;-70
2023/03/03 07:10:30;;;;;;;158.63;17.00;;;2.30;99.90;;;;;;5060269;28;20036;-71
2023/03/03 07:13:16;;;;;;;166.60;16.53;;;2.30;99.90;;;;;;5078237;28;20051;-71
2023/03/03 07:15:42;;;;;;;138.13;14.00;;;2.30;99.90;;;;;;5077501;28;20099;-70
2023/03/03 07:18:28;;;;;;;119.17;12.90;;;2.30;99.90;;;;;;5045453;28;20078;-70
2023/03/03 07:20:54;;;;;;;106.63;13.23;;;2.40;99.90;;;;;;5080849;28;20058;-70
2023/03/03 07:23:23;;;;;;;81.70;12.30;;;2.40;99.90;;;;;;5061704;28;20134;-71
2023/03/03 07:25:50;;;;;;;107.00;13.70;;;2.40;99.90;;;;;;5077782;28;20745;-70
2023/03/03 07:28:27;;;;;;;77.50;12.80;;;2.40;99.90;;;;;;5093446;28;20460;-71
2023/03/03 07:30:55;;;;;;;101.90;14.43;;;2.50;99.90;;;;;;5070023;28;20053;-70
2023/03/03 07:33:27;;;;;;;180.93;18.43;;;2.50;99.90;;;;;;5039416;28;20112;-71
2023/03/03 07:35:55;;;;;;;107.07;13.10;;;2.50;99.90;;;;;;5054941;28;20060;-70
2023/03/03 07:38:29;;;;;;;165.40;16.53;;;2.50;99.90;;;;;;5075420;28;20404;-71
2023/03/03 07:40:58;;;;;;;149.43;15.33;;;2.60;99.90;;;;;;5072270;28;20036;-70
2023/03/03 07:43:39;;;;;;;101.67;13.37;;;2.60;99.90;;;;;;5073498;28;20061;-70
2023/03/03 07:46:28;;;;;;;198.10;18.43;;;2.60;99.90;;;;;;5055957;28;20060;-71
2023/03/03 07:48:56;;;;;;;102.87;12.17;;;2.60;99.90;;;;;;5066491;28;20052;-71
2023/03/03 07:51:28;;;;;;;136.10;14.20;;;2.70;99.90;;;;;;5058902;28;20052;-70
2023/03/03 07:54:20;;;;;;;;;;;2.70;99.90;;;;;;5070865;28;20044;-71
2023/03/03 07:56:46;;;;;;;103.10;11.77;;;2.70;99.90;;;;;;5073847;28;19940;-71
2023/03/03 07:59:24;;;;;;;68.70;10.03;;;2.80;99.90;;;;;;5052987;28;20054;-71
2023/03/03 08:01:57;;;;;;;122.67;12.83;;;2.90;99.90;;;;;;5071630;28;20040;-71
2023/03/03 08:04:40;;;;;;;139.03;14.10;;;3.00;99.90;;;;;;5064766;28;20036;-70
2023/03/03 08:07:15;;;;;;;73.07;9.93;;;3.00;99.90;;;;;;5059632;28;20053;-71
2023/03/03 08:09:59;;;;;;;100.90;11.67;;;3.00;99.90;;;;;;5057459;28;20136;-77
2023/03/03 08:12:41;;;;;;;84.87;10.63;;;3.10;99.90;;;;;;5062014;28;20048;-71
2023/03/03 08:15:25;;;;;;;61.17;8.85;;;3.10;99.90;;;;;;5056116;28;20064;-71
2023/03/03 08:17:53;;;;;;;60.20;8.00;;;3.10;99.90;;;;;;5063307;28;20063;-71
2023/03/03 08:20:34;;;;;;;61.57;9.37;;;3.10;99.90;;;;;;5061257;28;20090;-71
2023/03/03 08:23:00;;;;;;;114.93;10.23;;;3.20;99.90;;;;;;5061604;28;20404;-71
2023/03/03 08:25:25;;;;;;;70.47;7.80;;;3.20;99.90;;;;;;5062455;28;20040;-71
2023/03/03 08:27:51;;;;;;;84.93;9.37;;;3.20;99.90;;;;;;5044561;28;20132;-71
2023/03/03 08:30:17;;;;;;;59.10;8.50;;;3.20;99.90;;;;;;5061161;28;20055;-69
2023/03/03 08:32:42;;;;;;;79.47;8.63;;;3.30;99.90;;;;;;5046455;28;20055;-71
2023/03/03 08:35:08;;;;;;;76.70;9.97;;;3.40;99.90;;;;;;5046693;28;20047;-70
2023/03/03 08:37:34;;;;;;;60.10;8.37;;;3.40;99.90;;;;;;5065293;28;20102;-71
2023/03/03 08:40:00;;;;;;;74.60;8.90;;;3.50;99.90;;;;;;5047485;28;20129;-71
2023/03/03 08:42:28;;;;;;;72.27;8.47;;;3.60;99.90;;;;;;5044431;28;20134;-71
2023/03/03 08:44:54;;;;;;;77.47;8.63;;;3.60;99.90;;;;;;5063824;28;20094;-70
2023/03/03 08:47:20;;;;;;;85.63;9.63;;;3.60;99.90;;;;;;5063669;28;20457;-71
2023/03/03 08:49:46;;;;;;;63.10;8.23;;;3.70;99.90;;;;;;5063150;28;20052;-71
2023/03/03 08:52:12;;;;;;;84.03;9.27;;;3.70;99.90;;;;;;5061354;28;20036;-71
2023/03/03 08:54:38;;;;;;;48.00;7.17;;;3.70;99.90;;;;;;5046112;28;20037;-70
2023/03/03 08:57:03;;;;;;;69.43;8.73;;;3.70;99.90;;;;;;5062565;28;20045;-70
2023/03/03 08:59:29;;;;;;;79.33;8.97;;;3.80;99.90;;;;;;5012896;28;20037;-70
2023/03/03 09:01:55;;;;;;;39.90;7.43;;;3.90;99.90;;;;;;5042811;28;20479;-70
2023/03/03 09:04:21;;;;;;;49.20;7.80;;;4.10;99.90;;;;;;5044116;28;20048;-71
2023/03/03 09:06:47;;;;;;;61.07;8.07;;;4.20;99.90;;;;;;5043702;28;20683;-70
2023/03/03 09:09:12;;;;;;;21.73;6.13;;;4.30;99.90;;;;;;5044348;28;20037;-70
2023/03/03 09:11:38;;;;;;;41.57;6.83;;;4.40;99.90;;;;;;5059844;28;20106;-70
2023/03/03 09:14:13;;;;;;;13.97;5.37;;;4.40;99.90;;;;;;5058461;28;20055;-70
2023/03/03 09:16:50;;;;;;;10.87;5.40;;;4.30;99.90;;;;;;5060946;28;20656;-70
2023/03/03 09:19:19;;;;;;;35.50;6.90;;;4.30;99.90;;;;;;5044283;28;20051;-70
2023/03/03 09:21:44;;;;;;;9.13;4.93;;;4.30;99.90;;;;;;5058418;28;20063;-71
2023/03/03 09:24:36;;;;;;;14.80;5.10;;;4.30;99.90;;;;;;5043625;28;20057;-71
2023/03/03 09:27:17;;;;;;;13.30;5.35;;;4.20;99.90;;;;;;5039829;28;20145;-70
2023/03/03 09:29:43;;;;;;;16.03;5.83;;;4.20;99.90;;;;;;5063641;28;20044;-71
2023/03/03 09:32:38;;;;;;;14.70;5.97;;;4.10;99.90;;;;;;5045564;28;20078;-70
2023/03/03 09:35:25;;;;;;;16.97;5.23;;;4.10;99.90;;;;;;5064634;28;20142;-71
2023/03/03 09:37:52;;;;;;;8.43;5.53;;;4.10;99.90;;;;;;5062399;28;20081;-71
2023/03/03 09:40:52;;;;;;;14.17;5.67;;;4.10;99.90;;;;;;5064016;28;20543;-70
2023/03/03 09:43:30;;;;;;;9.03;5.50;;;4.10;99.90;;;;;;5062872;28;20059;-70
2023/03/03 09:46:14;;;;;;;10.40;5.70;;;4.10;99.90;;;;;;5046562;28;21166;-71
2023/03/03 09:48:50;;;;;;;9.47;6.20;;;4.10;99.90;;;;;;5061706;28;20111;-71
2023/03/03 09:51:29;;;;;;;7.70;6.03;;;4.10;99.90;;;;;;5063378;28;20051;-71
2023/03/03 09:54:16;;;;;;;8.60;5.20;;;4.20;99.90;;;;;;5044556;28;20047;-70
2023/03/03 09:56:55;;;;;;;7.53;5.60;;;4.20;99.90;;;;;;5062971;28;20108;-71
2023/03/03 09:59:44;;;;;;;7.47;5.40;;;4.30;99.90;;;;;;5079741;28;20044;-70
2023/03/03 10:02:29;;;;;;;7.43;5.17;;;4.30;99.90;;;;;;5079215;28;20055;-71
2023/03/03 10:05:20;;;;;;;8.67;5.63;;;4.40;99.90;;;;;;5081832;28;20103;-76
2023/03/03 10:08:01;;;;;;;7.73;5.83;;;4.50;99.90;;;;;;5082436;28;20040;-71
2023/03/03 10:10:52;;;;;;;6.70;5.60;;;4.50;99.90;;;;;;5079999;28;20047;-71
2023/03/03 10:13:44;;;;;;;7.80;5.53;;;4.60;99.90;;;;;;5079388;28;20355;-71
2023/03/03 10:16:31;;;;;;;8.63;5.50;;;4.60;99.90;;;;;;5060460;28;20167;-71
2023/03/03 10:19:10;;;;;;;7.10;5.77;;;4.70;99.90;;;;;;5082206;28;20078;-70
2023/03/03 10:21:43;;;;;;;7.90;5.53;;;4.70;99.90;;;;;;5064602;28;20041;-71
2023/03/03 10:24:29;;;;;;;8.03;6.17;;;4.70;99.90;;;;;;5066579;28;20044;-71
2023/03/03 10:27:14;;;;;;;8.83;5.93;;;4.80;99.90;;;;;;5082482;28;20546;-70
2023/03/03 10:30:02;;;;;;;9.13;6.07;;;4.90;99.90;;;;;;5030775;28;20501;-70
2023/03/03 10:32:42;;;;;;;8.50;5.70;;;4.90;99.90;;;;;;5085767;28;20060;-71
2023/03/03 10:35:34;;;;;;;8.03;5.40;;;5.00;99.90;;;;;;5052271;28;20044;-70
2023/03/03 10:38:13;;;;;;;;;;;5.00;99.90;;;;;;5050659;28;20040;-72
2023/03/03 10:40:57;;;;;;;7.43;4.77;;;5.00;99.90;;;;;;5081602;28;19934;-70
2023/03/03 10:43:37;;;;;;;6.57;4.90;;;5.10;99.90;;;;;;5067630;28;20044;-70
2023/03/03 10:46:18;;;;;;;8.23;5.13;;;5.20;99.90;;;;;;5067166;28;20131;-71
2023/03/03 10:49:18;;;;;;;7.57;5.20;;;5.20;99.90;;;;;;5083947;28;20044;-71
2023/03/03 10:51:57;;;;;;;6.63;5.30;;;5.30;99.90;;;;;;5066832;28;20048;-70
2023/03/03 10:54:34;;;;;;;7.40;4.77;;;5.40;99.90;;;;;;5085651;28;20559;-71
2023/03/03 10:57:29;;;;;;;5.83;4.60;;;5.50;99.90;;;;;;5083528;28;20121;-71
2023/03/03 11:00:27;;;;;;;6.87;4.73;;;5.70;99.90;;;;;;5066868;28;20047;-71
2023/03/03 11:03:20;;;;;;;6.43;4.43;;;5.70;99.90;;;;;;5060860;28;20526;-71
2023/03/03 11:05:50;;;;;;;6.17;4.10;;;5.90;99.90;;;;;;5084007;28;20040;-70
2023/03/03 11:08:31;;;;;;;6.33;4.73;;;5.90;99.90;;;;;;5051052;28;20058;-71
2023/03/03 11:11:09;;;;;;;4.32;3.83;;;6.00;99.90;;;;;;5068625;28;20107;-71
2023/03/03 11:13:47;;;;;;;5.17;4.20;;;6.10;99.90;;;;;;5047391;28;20048;-71
2023/03/03 11:16:31;;;;;;;4.53;3.77;;;6.20;99.90;;;;;;5081877;28;20047;-70
2023/03/03 11:19:23;;;;;;;6.83;4.00;;;6.40;99.90;;;;;;5083040;28;20043;-71
2023/03/03 11:22:17;;;;;;;5.55;3.90;;;6.50;99.90;;;;;;5063465;28;20495;-70
2023/03/03 11:24:55;;;;;;;5.30;3.87;;;6.60;99.90;;;;;;5063094;28;20035;-71
2023/03/03 11:27:39;;;;;;;6.33;4.47;;;6.70;99.90;;;;;;5060561;28;20058;-70
2023/03/03 11:30:24;;;;;;;5.90;4.27;;;6.80;99.90;;;;;;5063494;28;20057;-71
2023/03/03 11:33:03;;;;;;;8.03;4.50;;;6.80;99.90;;;;;;5063824;28;20048;-72
2023/03/03 11:35:55;;;;;;;5.60;3.77;;;6.90;99.90;;;;;;5083935;28;20052;-71
2023/03/03 11:38:48;;;;;;;7.87;4.10;;;7.00;99.90;;;;;;5064015;28;20056;-71
2023/03/03 11:41:20;;;;;;;5.80;3.87;;;7.00;99.90;;;;;;5066171;28;20282;-71
2023/03/03 11:43:57;;;;;;;6.45;4.30;;;7.20;99.90;;;;;;5063839;28;20553;-71
2023/03/03 11:46:44;;;;;;;7.13;4.63;;;7.30;99.90;;;;;;5079567;28;20043;-71
2023/03/03 11:49:37;;;;;;;8.60;4.27;;;7.30;99.90;;;;;;5067641;28;20076;-71
2023/03/03 11:52:27;;;;;;;6.90;3.37;;;7.30;99.90;;;;;;5064674;28;20139;-71
2023/03/03 11:55:19;;;;;;;4.27;3.30;;;7.30;99.90;;;;;;5082869;28;20095;-70
2023/03/03 11:57:49;;;;;;;;;;;7.40;99.90;;;;;;5065729;28;20070;-71
2023/03/03 12:00:24;;;;;;;4.47;2.73;;;7.40;99.90;;;;;;5048752;28;19928;-71
2023/03/03 12:03:18;;;;;;;5.40;3.17;;;7.40;99.90;;;;;;5066533;28;20044;-71
2023/03/03 12:05:55;;;;;;;7.30;3.10;;;7.40;99.90;;;;;;5063226;28;20604;-70
2023/03/03 12:08:35;;;;;;;6.77;2.97;;;7.40;99.90;;;;;;5072404;28;20289;-71
2023/03/03 12:11:28;;;;;;;5.50;2.93;;;7.40;99.90;;;;;;5071418;28;20071;-71
2023/03/03 12:14:06;;;;;;;6.07;3.00;;;7.40;99.90;;;;;;5074795;28;20058;-71
2023/03/03 12:16:57;;;;;;;4.30;3.10;;;7.50;99.90;;;;;;5096446;28;20040;-70
2023/03/03 12:19:38;;;;;;;5.40;3.03;;;7.50;99.90;;;;;;5080416;28;20135;-71
2023/03/03 12:22:20;;;;;;;5.33;2.50;;;7.60;99.90;;;;;;5090896;28;20100;-70
2023/03/03 12:25:01;;;;;;;4.37;2.53;;;7.60;99.90;;;;;;5084311;28;20048;-70
2023/03/03 12:27:39;;;;;;;5.20;2.53;;;7.60;99.90;;;;;;5076693;28;20079;-69
2023/03/03 12:30:44;;;;;;;2.77;2.50;;;7.50;99.90;;;;;;5095963;28;20044;-70
2023/03/03 12:33:22;;;;;;;6.77;2.63;;;7.50;99.90;;;;;;5077261;28;20551;-71
2023/03/03 12:35:54;;;;;;;3.47;2.50;;;7.40;99.90;;;;;;5095445;28;20044;-70
2023/03/03 12:38:30;;;;;;;2.75;2.15;;;7.40;99.90;;;;;;5076620;28;20067;-71
2023/03/03 12:41:08;;;;;;;6.13;2.43;;;7.40;99.90;;;;;;5074201;28;20051;-71
2023/03/03 12:43:53;;;;;;;3.77;1.80;;;7.40;99.90;;;;;;5076699;28;20082;-70
2023/03/03 12:46:32;;;;;;;3.30;1.70;;;7.60;99.90;;;;;;5052695;28;20108;-70
2023/03/03 12:48:58;;;;;;;3.23;1.80;;;7.60;99.90;;;;;;5091576;28;20052;-70
2023/03/03 12:51:35;;;;;;;3.33;1.77;;;7.70;99.90;;;;;;5073855;28;20481;-70
2023/03/03 12:54:18;;;;;;;4.50;2.10;;;7.60;99.90;;;;;;5059695;28;20104;-71
2023/03/03 12:56:45;;;;;;;;;;;7.60;99.90;;;;;;5095653;28;20043;-70
2023/03/03 12:59:39;;;;;;;4.47;1.90;;;7.60;99.90;;;;;;5057394;28;19955;-71
2023/03/03 13:02:52;;;;;;;3.33;1.87;;;7.50;99.90;;;;;;5080526;28;20068;-71
2023/03/03 13:05:48;;;;;;;3.70;2.30;;;7.50;99.90;;;;;;5010223;28;20559;-70
2023/03/03 13:08:46;;;;;;;4.87;1.70;;;7.50;99.90;;;;;;5071735;28;20533;-70
2023/03/03 13:11:30;;;;;;;5.03;1.30;;;7.50;99.90;;;;;;5044120;28;20179;-70